Time;durP1;ratioP1;P1;durP2;ratioP2;P2;SDS_P1;SDS_P2;PMS_P1;PMS_P2;Temp;Humidity;BMP_temperature;BMP_pressure;BME280_temperature;BME280_humidity;BME280_pressure;Samples;Min_cycle;Max_cycle;Signal;HPM_P1;HPM_P2
2024/01/18 00:01:13;;;;;;;40.55;17.33;;;0.10;99.90;;;;;;5029298;28;20069;-67
2024/01/18 00:03:39;;;;;;;36.25;17.52;;;0.00;99.90;;;;;;5027473;28;20041;-67
2024/01/18 00:06:06;;;;;;;39.60;19.75;;;0.00;99.90;;;;;;5027652;28;20064;-67
2024/01/18 00:08:32;;;;;;;33.33;17.63;;;0.00;99.90;;;;;;5029398;28;20041;-67
2024/01/18 00:10:58;;;;;;;25.55;15.38;;;-0.10;99.90;;;;;;5027553;28;20049;-67
2024/01/18 00:13:24;;;;;;;25.27;15.68;;;0.00;99.90;;;;;;5011621;28;20202;-67
2024/01/18 00:15:50;;;;;;;22.35;14.43;;;-0.10;99.90;;;;;;5027747;28;20497;-67
2024/01/18 00:18:15;;;;;;;18.85;12.60;;;-0.10;99.90;;;;;;5027270;28;20124;-67
2024/01/18 00:20:44;;;;;;;18.45;12.30;;;0.00;99.90;;;;;;5028454;28;20054;-67
2024/01/18 00:23:10;;;;;;;19.73;12.60;;;0.00;99.90;;;;;;5026908;28;20130;-68
2024/01/18 00:25:36;;;;;;;22.50;13.23;;;-0.10;99.90;;;;;;5026668;28;20408;-67
2024/01/18 00:28:02;;;;;;;19.83;11.68;;;-0.10;99.90;;;;;;5025904;28;20080;-67
2024/01/18 00:30:28;;;;;;;18.90;12.35;;;-0.20;99.90;;;;;;5025944;28;20806;-67
2024/01/18 00:32:53;;;;;;;19.17;12.23;;;-0.20;99.90;;;;;;5026061;28;20049;-67
2024/01/18 00:35:19;;;;;;;21.08;13.07;;;-0.20;99.90;;;;;;5026517;28;20041;-67
2024/01/18 00:37:46;;;;;;;18.85;12.38;;;-0.10;99.90;;;;;;5026187;28;20045;-67
2024/01/18 00:40:14;;;;;;;20.50;12.18;;;-0.10;99.90;;;;;;5026344;28;20042;-67
2024/01/18 00:42:40;;;;;;;22.38;12.90;;;-0.20;99.90;;;;;;5027900;28;20038;-67
2024/01/18 00:45:06;;;;;;;22.42;12.40;;;-0.10;99.90;;;;;;5026472;28;20156;-67
2024/01/18 00:47:32;;;;;;;19.70;11.52;;;0.00;99.90;;;;;;5026288;28;20053;-67
2024/01/18 00:49:58;;;;;;;15.60;10.88;;;-0.10;99.90;;;;;;5026332;28;20061;-67
2024/01/18 00:52:24;;;;;;;16.58;10.07;;;0.00;99.90;;;;;;5026439;28;20041;-67
2024/01/18 00:54:50;;;;;;;16.40;11.43;;;0.00;99.90;;;;;;5026482;28;20049;-67
2024/01/18 00:57:15;;;;;;;15.25;9.75;;;0.00;99.90;;;;;;5026258;28;20057;-67
2024/01/18 00:59:41;;;;;;;13.57;9.63;;;0.00;99.90;;;;;;5028099;28;20045;-66
2024/01/18 01:02:08;;;;;;;20.55;9.68;;;0.00;99.90;;;;;;5026152;28;20076;-67
2024/01/18 01:04:34;;;;;;;18.90;10.75;;;0.00;99.90;;;;;;5027696;28;20062;-66
2024/01/18 01:06:59;;;;;;;19.15;9.82;;;-0.10;99.90;;;;;;5026545;28;20430;-67
2024/01/18 01:09:25;;;;;;;16.23;10.57;;;0.00;99.90;;;;;;5026155;28;20386;-67
2024/01/18 01:11:52;;;;;;;14.02;8.90;;;0.00;99.90;;;;;;5026299;28;20045;-66
2024/01/18 01:14:18;;;;;;;15.52;9.52;;;0.00;99.90;;;;;;5026914;28;20156;-67
2024/01/18 01:16:44;;;;;;;17.60;9.88;;;0.00;99.90;;;;;;5026586;28;20677;-67
2024/01/18 01:19:09;;;;;;;15.20;9.30;;;0.00;99.90;;;;;;5028128;28;20072;-67
2024/01/18 01:21:36;;;;;;;14.30;9.45;;;0.00;99.90;;;;;;5026201;28;20052;-67
2024/01/18 01:24:02;;;;;;;12.73;9.00;;;0.00;99.90;;;;;;5028093;28;20041;-66
2024/01/18 01:26:28;;;;;;;15.30;9.63;;;0.00;99.90;;;;;;5026182;28;20060;-67
2024/01/18 01:28:54;;;;;;;16.98;8.50;;;-0.10;99.90;;;;;;5026218;28;20037;-67
2024/01/18 01:31:20;;;;;;;14.05;9.13;;;0.00;99.90;;;;;;5027413;28;20076;-66
2024/01/18 01:33:47;;;;;;;14.27;8.63;;;0.00;99.90;;;;;;5027340;28;20045;-66
2024/01/18 01:36:13;;;;;;;14.63;8.20;;;0.00;99.90;;;;;;5027200;28;20531;-66
2024/01/18 01:38:39;;;;;;;15.73;7.25;;;0.00;99.90;;;;;;5027151;28;20108;-66
2024/01/18 01:41:05;;;;;;;18.13;9.25;;;0.00;99.90;;;;;;5025558;28;20069;-66
2024/01/18 01:43:31;;;;;;;10.88;7.15;;;0.00;99.90;;;;;;5026395;28;20180;-67
2024/01/18 01:45:57;;;;;;;12.07;6.88;;;0.00;99.90;;;;;;5031009;28;20045;-67
2024/01/18 01:48:23;;;;;;;14.35;7.45;;;0.00;99.90;;;;;;5012754;28;20133;-66
2024/01/18 01:50:49;;;;;;;16.20;7.43;;;0.00;99.90;;;;;;5029713;28;20120;-66
2024/01/18 01:53:17;;;;;;;14.07;7.13;;;0.00;99.90;;;;;;5013086;28;20477;-67
2024/01/18 01:55:43;;;;;;;16.50;6.95;;;0.00;99.90;;;;;;5029123;28;20041;-66
2024/01/18 01:58:11;;;;;;;14.07;6.82;;;-0.10;99.90;;;;;;5029403;28;20064;-67
2024/01/18 02:00:37;;;;;;;10.00;7.15;;;0.00;99.90;;;;;;5028881;28;20049;-67
2024/01/18 02:03:03;;;;;;;12.88;6.68;;;0.00;99.90;;;;;;5029145;28;20191;-67
2024/01/18 02:05:30;;;;;;;11.93;6.53;;;-0.10;99.90;;;;;;5028926;28;20099;-66
2024/01/18 02:07:59;;;;;;;14.75;6.90;;;-0.10;99.90;;;;;;5030526;28;20128;-67
2024/01/18 02:10:25;;;;;;;11.63;5.85;;;-0.10;99.90;;;;;;5012014;28;20041;-67
2024/01/18 02:12:51;;;;;;;7.60;5.68;;;-0.10;99.90;;;;;;5029045;28;20045;-67
2024/01/18 02:15:18;;;;;;;12.63;6.03;;;-0.10;99.90;;;;;;5030134;28;20042;-67
2024/01/18 02:17:44;;;;;;;9.60;6.15;;;-0.10;99.90;;;;;;5028571;28;20065;-67
2024/01/18 02:20:10;;;;;;;11.48;5.43;;;-0.10;99.90;;;;;;5012850;28;20046;-67
2024/01/18 02:22:43;;;;;;;12.13;6.93;;;-0.10;99.90;;;;;;5029021;28;20072;-67
2024/01/18 02:25:13;;;;;;;11.23;5.68;;;-0.10;99.90;;;;;;5030662;28;20057;-67
2024/01/18 02:27:39;;;;;;;8.57;5.50;;;-0.10;99.90;;;;;;5028451;28;20406;-67
2024/01/18 02:30:05;;;;;;;8.68;5.15;;;-0.10;99.90;;;;;;5028838;28;20056;-67
2024/01/18 02:32:30;;;;;;;8.85;5.80;;;-0.10;99.90;;;;;;5028702;28;20179;-67
2024/01/18 02:34:56;;;;;;;9.90;5.05;;;-0.10;99.90;;;;;;5030175;28;20116;-67
2024/01/18 02:37:22;;;;;;;10.00;5.25;;;-0.10;99.90;;;;;;5030242;28;20049;-67
2024/01/18 02:39:48;;;;;;;8.90;4.78;;;-0.20;99.90;;;;;;5028728;28;20536;-68
2024/01/18 02:42:14;;;;;;;10.65;4.95;;;-0.10;99.90;;;;;;5030278;28;20118;-68
2024/01/18 02:44:41;;;;;;;10.63;5.05;;;-0.10;99.90;;;;;;5029881;28;20042;-68
2024/01/18 02:47:07;;;;;;;7.72;4.40;;;-0.20;99.90;;;;;;5027969;28;20107;-68
2024/01/18 02:49:37;;;;;;;8.95;4.53;;;-0.20;99.90;;;;;;5028069;28;20140;-66
2024/01/18 02:52:03;;;;;;;6.50;4.72;;;-0.20;99.90;;;;;;5011647;28;20488;-66
2024/01/18 02:54:28;;;;;;;9.35;4.88;;;-0.30;99.90;;;;;;5028044;28;20053;-67
2024/01/18 02:56:54;;;;;;;9.25;4.95;;;-0.30;99.90;;;;;;5027844;28;20049;-67
2024/01/18 02:59:20;;;;;;;5.13;4.43;;;-0.40;99.90;;;;;;5027822;28;20405;-67
2024/01/18 03:01:45;;;;;;;8.57;4.40;;;-0.30;99.90;;;;;;5027485;28;20041;-68
2024/01/18 03:04:11;;;;;;;9.25;5.63;;;-0.30;99.90;;;;;;5011207;28;20052;-67
2024/01/18 03:06:37;;;;;;;6.95;4.40;;;-0.40;99.90;;;;;;5027788;28;20068;-67
2024/01/18 03:09:03;;;;;;;10.10;4.28;;;-0.50;99.90;;;;;;5027514;28;20072;-67
2024/01/18 03:11:28;;;;;;;9.98;4.30;;;-0.50;99.90;;;;;;5027563;28;20083;-67
2024/01/18 03:13:54;;;;;;;11.52;4.95;;;-0.50;99.90;;;;;;5029143;28;20052;-66
2024/01/18 03:16:19;;;;;;;6.80;3.95;;;-0.50;99.90;;;;;;5028883;28;20041;-67
2024/01/18 03:18:46;;;;;;;12.98;4.55;;;-0.50;99.90;;;;;;5027608;28;20064;-67
2024/01/18 03:21:12;;;;;;;6.20;3.78;;;-0.50;99.90;;;;;;5028786;28;20057;-67
2024/01/18 03:23:37;;;;;;;5.30;4.10;;;-0.50;99.90;;;;;;5027176;28;20099;-67
2024/01/18 03:26:03;;;;;;;9.55;4.63;;;-0.50;99.90;;;;;;5027588;28;20099;-67
2024/01/18 03:28:29;;;;;;;7.88;3.90;;;-0.50;99.90;;;;;;5027053;28;20041;-67
2024/01/18 03:30:54;;;;;;;5.63;4.30;;;-0.50;99.90;;;;;;5027163;28;20389;-66
2024/01/18 03:33:20;;;;;;;8.00;4.10;;;-0.50;99.90;;;;;;5027484;28;20068;-67
2024/01/18 03:35:46;;;;;;;6.13;4.18;;;-0.60;99.90;;;;;;5027733;28;20053;-67
2024/01/18 03:38:11;;;;;;;5.63;3.92;;;-0.60;99.90;;;;;;5028771;28;20060;-67
2024/01/18 03:40:38;;;;;;;5.85;3.90;;;-0.60;99.90;;;;;;5029312;28;20044;-66
2024/01/18 03:43:03;;;;;;;6.40;4.05;;;-0.60;99.90;;;;;;5028419;28;20519;-67
2024/01/18 03:45:29;;;;;;;8.85;4.10;;;-0.60;99.90;;;;;;5027040;28;20120;-67
2024/01/18 03:47:55;;;;;;;10.07;4.20;;;-0.60;99.90;;;;;;5010224;28;20115;-66
2024/01/18 03:50:21;;;;;;;6.22;3.53;;;-0.60;99.90;;;;;;5027219;28;20052;-66
2024/01/18 03:52:46;;;;;;;4.22;3.60;;;-0.50;99.90;;;;;;5026929;28;20037;-67
2024/01/18 03:55:12;;;;;;;5.97;3.60;;;-0.50;99.90;;;;;;5028296;28;20053;-67
2024/01/18 03:57:39;;;;;;;5.80;3.90;;;-0.40;99.90;;;;;;5010273;28;20112;-67
2024/01/18 04:00:05;;;;;;;6.20;3.72;;;-0.40;99.90;;;;;;5010460;28;20041;-67
2024/01/18 04:02:31;;;;;;;5.13;3.55;;;-0.50;99.90;;;;;;5026274;28;20265;-67
2024/01/18 04:04:56;;;;;;;6.22;3.45;;;-0.40;99.90;;;;;;5010071;28;20620;-67
2024/01/18 04:07:22;;;;;;;5.25;3.35;;;-0.50;99.90;;;;;;5028193;28;20037;-67
2024/01/18 04:09:48;;;;;;;5.47;4.00;;;-0.50;99.90;;;;;;5027162;28;20138;-67
2024/01/18 04:12:14;;;;;;;6.28;4.07;;;-0.50;99.90;;;;;;5010232;28;20068;-67
2024/01/18 04:14:43;;;;;;;7.45;3.80;;;-0.60;99.90;;;;;;5010168;28;20052;-67
2024/01/18 04:17:11;;;;;;;8.73;3.85;;;-0.70;99.90;;;;;;5028113;28;20354;-67
2024/01/18 04:19:39;;;;;;;8.38;4.15;;;-0.60;99.90;;;;;;5026908;28;20049;-67
2024/01/18 04:22:08;;;;;;;7.28;3.95;;;-0.70;99.90;;;;;;5027753;28;20052;-67
2024/01/18 04:24:34;;;;;;;5.18;4.05;;;-0.70;99.90;;;;;;5027770;28;20053;-67
2024/01/18 04:26:59;;;;;;;9.82;3.72;;;-0.70;99.90;;;;;;5026026;28;20405;-67
2024/01/18 04:29:27;;;;;;;6.55;4.10;;;-0.70;99.90;;;;;;5027672;28;20422;-67
2024/01/18 04:31:53;;;;;;;5.60;3.30;;;-0.70;99.90;;;;;;5026706;28;20068;-66
2024/01/18 04:34:18;;;;;;;7.38;4.22;;;-0.70;99.90;;;;;;5027362;28;20045;-66
2024/01/18 04:36:44;;;;;;;7.20;4.30;;;-0.80;99.90;;;;;;5026068;28;20163;-66
2024/01/18 04:39:10;;;;;;;9.55;3.97;;;-0.80;99.90;;;;;;5026314;28;20037;-67
2024/01/18 04:41:35;;;;;;;6.28;4.10;;;-0.80;99.90;;;;;;5027763;28;20038;-67
2024/01/18 04:44:01;;;;;;;5.93;3.67;;;-0.80;99.90;;;;;;5025685;28;20045;-66
2024/01/18 04:46:28;;;;;;;4.43;3.28;;;-0.80;99.90;;;;;;5025342;28;20045;-66
2024/01/18 04:48:53;;;;;;;5.43;3.55;;;-0.80;99.90;;;;;;5025591;28;20069;-67
2024/01/18 04:51:20;;;;;;;5.47;3.42;;;-0.80;99.90;;;;;;5026342;28;20779;-67
2024/01/18 04:53:46;;;;;;;4.15;2.92;;;-0.80;99.90;;;;;;5026023;28;20053;-67
2024/01/18 04:56:12;;;;;;;6.65;2.42;;;-0.90;99.90;;;;;;5026038;28;20148;-66
2024/01/18 04:58:37;;;;;;;7.30;2.85;;;-0.90;99.90;;;;;;5027503;28;20045;-67
2024/01/18 05:01:03;;;;;;;3.85;3.33;;;-0.80;99.90;;;;;;5027588;28;20049;-67
2024/01/18 05:03:29;;;;;;;5.28;2.80;;;-0.80;99.90;;;;;;5025894;28;20366;-68
2024/01/18 05:05:58;;;;;;;4.80;2.28;;;-0.70;99.90;;;;;;5026043;28;20049;-66
2024/01/18 05:08:24;;;;;;;8.10;2.97;;;-0.60;99.90;;;;;;5025853;28;20144;-67
2024/01/18 05:10:50;;;;;;;6.20;2.30;;;-0.60;99.90;;;;;;5026308;28;20037;-67
2024/01/18 05:13:16;;;;;;;4.45;2.53;;;-0.60;99.90;;;;;;5025988;28;20485;-67
2024/01/18 05:15:42;;;;;;;2.92;1.80;;;-0.50;99.90;;;;;;5009497;28;20145;-67
2024/01/18 05:18:08;;;;;;;2.30;2.10;;;-0.50;99.90;;;;;;5025556;28;20115;-67
2024/01/18 05:20:34;;;;;;;7.80;2.45;;;-0.50;99.90;;;;;;5029706;28;20516;-67
2024/01/18 05:23:00;;;;;;;3.30;2.00;;;-0.50;99.90;;;;;;5029515;28;20087;-67
2024/01/18 05:25:26;;;;;;;3.45;2.10;;;-0.50;99.90;;;;;;5030998;28;20104;-67
2024/01/18 05:27:51;;;;;;;2.90;2.00;;;-0.50;99.90;;;;;;5029228;28;20048;-67
2024/01/18 05:30:17;;;;;;;2.17;2.03;;;-0.50;99.90;;;;;;5031320;28;20053;-67
2024/01/18 05:32:43;;;;;;;4.80;2.13;;;-0.40;99.90;;;;;;5029334;28;20425;-67
2024/01/18 05:35:09;;;;;;;2.38;2.00;;;-0.40;99.90;;;;;;5030040;28;20068;-67
2024/01/18 05:37:35;;;;;;;4.55;2.20;;;-0.40;99.90;;;;;;5030929;28;20435;-67
2024/01/18 05:40:00;;;;;;;2.00;1.80;;;-0.40;99.90;;;;;;5029270;28;20425;-67
2024/01/18 05:42:27;;;;;;;4.75;1.90;;;-0.40;99.90;;;;;;5029341;28;20138;-67
2024/01/18 05:44:53;;;;;;;3.08;1.95;;;-0.40;99.90;;;;;;5029173;28;20148;-69
2024/01/18 05:47:20;;;;;;;3.78;2.08;;;-0.30;99.90;;;;;;5012314;28;20049;-67
2024/01/18 05:49:46;;;;;;;2.88;1.67;;;-0.40;99.90;;;;;;5029090;28;20080;-67
2024/01/18 05:52:12;;;;;;;4.25;2.00;;;-0.40;99.90;;;;;;5028999;28;20864;-68
2024/01/18 05:54:37;;;;;;;4.25;2.25;;;-0.40;99.90;;;;;;5028944;28;20128;-67
2024/01/18 05:57:04;;;;;;;5.28;2.60;;;-0.30;99.90;;;;;;5028872;28;20060;-67
2024/01/18 05:59:30;;;;;;;3.15;2.17;;;-0.40;99.90;;;;;;5028607;28;20054;-67
2024/01/18 06:01:56;;;;;;;11.50;2.33;;;-0.40;99.90;;;;;;5028560;28;20045;-66
2024/01/18 06:04:24;;;;;;;2.25;2.00;;;-0.40;99.90;;;;;;5028806;28;20373;-67
2024/01/18 06:06:50;;;;;;;2.03;1.90;;;-0.40;99.90;;;;;;5028513;28;20493;-67
2024/01/18 06:09:16;;;;;;;6.30;2.10;;;-0.40;99.90;;;;;;5028755;28;20391;-68
2024/01/18 06:11:45;;;;;;;1.95;1.77;;;-0.40;99.90;;;;;;5028690;28;20041;-68
2024/01/18 06:14:11;;;;;;;3.65;1.88;;;-0.40;99.90;;;;;;5030478;28;20049;-68
2024/01/18 06:16:38;;;;;;;2.97;2.00;;;-0.40;99.90;;;;;;5028136;28;20050;-68
2024/01/18 06:19:04;;;;;;;2.47;1.80;;;-0.40;99.90;;;;;;5030560;28;20092;-68
2024/01/18 06:21:30;;;;;;;3.25;2.13;;;-0.40;99.90;;;;;;5030099;28;20128;-68
2024/01/18 06:23:55;;;;;;;2.83;1.98;;;-0.40;99.90;;;;;;5028627;28;20141;-68
2024/01/18 06:26:21;;;;;;;5.43;2.25;;;-0.40;99.90;;;;;;5028631;28;20038;-68
2024/01/18 06:28:47;;;;;;;3.88;2.40;;;-0.40;99.90;;;;;;5029626;28;20059;-68
2024/01/18 06:31:13;;;;;;;4.95;2.38;;;-0.50;99.90;;;;;;5028330;28;20049;-68
2024/01/18 06:33:39;;;;;;;3.63;2.67;;;-0.50;99.90;;;;;;5030005;28;20045;-68
2024/01/18 06:36:08;;;;;;;4.53;2.55;;;-0.50;99.90;;;;;;5028644;28;20050;-68
2024/01/18 06:38:33;;;;;;;3.20;2.05;;;-0.50;99.90;;;;;;5029884;28;20124;-68
2024/01/18 06:40:59;;;;;;;4.55;2.33;;;-0.60;99.90;;;;;;5028265;28;20452;-66
2024/01/18 06:43:26;;;;;;;5.13;2.30;;;-0.60;99.90;;;;;;5029605;28;20484;-67
2024/01/18 06:45:55;;;;;;;3.53;2.22;;;-0.70;99.90;;;;;;5028304;28;20080;-66
2024/01/18 06:48:22;;;;;;;2.03;1.90;;;-0.60;99.90;;;;;;5029389;28;20076;-67
2024/01/18 06:50:47;;;;;;;4.90;2.40;;;-0.70;99.90;;;;;;5011536;28;20079;-67
2024/01/18 06:53:13;;;;;;;6.00;2.20;;;-0.70;99.90;;;;;;5029269;28;20058;-66
2024/01/18 06:55:40;;;;;;;3.60;2.30;;;-0.70;99.90;;;;;;5027872;28;20041;-66
2024/01/18 06:58:06;;;;;;;4.68;2.22;;;-0.70;99.90;;;;;;5029714;28;20139;-66
2024/01/18 07:00:32;;;;;;;3.80;2.28;;;-0.80;99.90;;;;;;5029573;28;20197;-66
2024/01/18 07:02:58;;;;;;;2.40;2.17;;;-0.80;99.90;;;;;;5028068;28;20489;-66
2024/01/18 07:05:24;;;;;;;6.00;1.67;;;-0.70;99.90;;;;;;5029832;28;20400;-66
2024/01/18 07:07:50;;;;;;;2.30;1.90;;;-0.70;99.90;;;;;;5028402;28;20486;-66
2024/01/18 07:10:17;;;;;;;4.25;2.20;;;-0.60;99.90;;;;;;5029665;28;20053;-66
2024/01/18 07:12:46;;;;;;;3.33;1.92;;;-0.70;99.90;;;;;;5028277;28;20516;-66
2024/01/18 07:15:12;;;;;;;4.22;2.03;;;-0.70;99.90;;;;;;5027909;28;20347;-66
2024/01/18 07:17:38;;;;;;;4.50;2.03;;;-0.60;99.90;;;;;;5029072;28;20141;-67
2024/01/18 07:20:05;;;;;;;4.30;1.92;;;-0.70;99.90;;;;;;5027788;28;20068;-66
2024/01/18 07:22:31;;;;;;;2.28;2.05;;;-0.70;99.90;;;;;;5029348;28;20042;-67
2024/01/18 07:24:56;;;;;;;1.77;1.67;;;-0.70;99.90;;;;;;5028887;28;20127;-66
2024/01/18 07:27:22;;;;;;;2.67;2.47;;;-0.80;99.90;;;;;;5025595;28;20037;-67
2024/01/18 07:29:49;;;;;;;2.88;2.03;;;-0.80;99.90;;;;;;5028466;28;20037;-67
2024/01/18 07:32:18;;;;;;;3.97;2.53;;;-0.70;99.90;;;;;;5026773;28;20052;-67
2024/01/18 07:34:45;;;;;;;3.40;2.05;;;-0.80;99.90;;;;;;5028282;28;20103;-66
2024/01/18 07:37:14;;;;;;;3.45;2.38;;;-0.80;99.90;;;;;;5009670;28;20612;-67
2024/01/18 07:39:43;;;;;;;2.58;2.38;;;-0.80;99.90;;;;;;5026656;28;20052;-67
2024/01/18 07:42:09;;;;;;;8.68;2.70;;;-0.90;99.90;;;;;;5009437;28;20061;-66
2024/01/18 07:44:35;;;;;;;4.88;2.75;;;-0.90;99.90;;;;;;5027946;28;20072;-66
2024/01/18 07:47:00;;;;;;;6.55;2.70;;;-1.00;99.90;;;;;;5011041;28;20055;-67
2024/01/18 07:49:26;;;;;;;8.80;3.00;;;-0.90;99.90;;;;;;5026495;28;20565;-67
2024/01/18 07:51:52;;;;;;;4.68;3.78;;;-0.90;99.90;;;;;;5027240;28;20061;-67
2024/01/18 07:54:18;;;;;;;4.55;3.05;;;-0.90;99.90;;;;;;5028285;28;20404;-67
2024/01/18 07:56:43;;;;;;;3.42;2.90;;;-1.00;99.90;;;;;;5028161;28;20689;-68
2024/01/18 07:59:09;;;;;;;3.60;2.92;;;-1.00;99.90;;;;;;5010563;28;20141;-67
2024/01/18 08:01:35;;;;;;;2.90;2.60;;;-1.00;99.90;;;;;;5029164;28;20388;-67
2024/01/18 08:04:01;;;;;;;2.40;2.00;;;-1.00;99.90;;;;;;5027681;28;20053;-67
2024/01/18 08:06:26;;;;;;;5.03;2.45;;;-1.10;99.90;;;;;;5027492;28;20079;-67
2024/01/18 08:08:52;;;;;;;3.80;2.53;;;-1.10;99.90;;;;;;5029013;28;20204;-67
2024/01/18 08:11:18;;;;;;;2.97;2.10;;;-1.10;99.90;;;;;;5027540;28;20315;-67
2024/01/18 08:13:43;;;;;;;6.85;2.33;;;-1.00;99.90;;;;;;5027291;28;20093;-67
2024/01/18 08:16:10;;;;;;;5.60;2.10;;;-1.10;99.90;;;;;;5030242;28;20083;-67
2024/01/18 08:18:39;;;;;;;3.45;2.47;;;-1.10;99.90;;;;;;5029294;28;20045;-66
2024/01/18 08:21:04;;;;;;;2.95;2.22;;;-1.10;99.90;;;;;;5029248;28;20041;-66
2024/01/18 08:23:30;;;;;;;5.22;2.78;;;-1.10;99.90;;;;;;5028580;28;20114;-66
2024/01/18 08:25:56;;;;;;;4.13;2.75;;;-1.10;99.90;;;;;;5027016;28;20132;-66
2024/01/18 08:28:22;;;;;;;4.50;2.40;;;-1.00;99.90;;;;;;5028349;28;20183;-66
2024/01/18 08:30:48;;;;;;;4.95;2.97;;;-1.00;99.90;;;;;;5028640;28;20053;-66
2024/01/18 08:33:15;;;;;;;3.28;2.42;;;-1.10;99.90;;;;;;5027330;28;20394;-66
2024/01/18 08:35:40;;;;;;;4.40;2.70;;;-1.10;99.90;;;;;;5028680;28;20507;-66
2024/01/18 08:38:06;;;;;;;4.38;2.53;;;-1.10;99.90;;;;;;5028233;28;20124;-66
2024/01/18 08:40:35;;;;;;;4.65;2.88;;;-1.00;99.90;;;;;;5026988;28;20136;-66
2024/01/18 08:43:01;;;;;;;4.30;2.65;;;-0.90;99.90;;;;;;5007133;28;20041;-66
2024/01/18 08:45:29;;;;;;;2.58;2.38;;;-0.70;99.90;;;;;;5007487;28;20037;-66
2024/01/18 08:47:54;;;;;;;4.53;2.90;;;-0.70;99.90;;;;;;5008662;28;20135;-66
2024/01/18 08:50:23;;;;;;;3.72;2.40;;;-0.60;99.90;;;;;;5007345;28;20141;-66
2024/01/18 08:52:51;;;;;;;4.60;2.45;;;-0.60;99.90;;;;;;5007992;28;20128;-67
2024/01/18 08:55:18;;;;;;;5.80;2.38;;;-0.50;99.90;;;;;;5012017;28;20113;-66
2024/01/18 08:57:44;;;;;;;2.67;2.20;;;-0.50;99.90;;;;;;5012493;28;20054;-66
2024/01/18 09:00:13;;;;;;;2.97;2.42;;;-0.50;99.90;;;;;;5012636;28;20109;-67
2024/01/18 09:02:40;;;;;;;3.40;2.08;;;-0.50;99.90;;;;;;5010932;28;20054;-66
2024/01/18 09:05:06;;;;;;;2.42;2.17;;;-0.50;99.90;;;;;;5012889;28;20121;-67
2024/01/18 09:07:32;;;;;;;3.00;2.38;;;-0.50;99.90;;;;;;5012593;28;20126;-66
2024/01/18 09:09:58;;;;;;;6.32;2.30;;;-0.50;99.90;;;;;;5011312;28;20050;-66
2024/01/18 09:12:24;;;;;;;2.58;2.38;;;-0.50;99.90;;;;;;5012753;28;20662;-67
2024/01/18 09:14:49;;;;;;;3.13;2.03;;;-0.40;99.90;;;;;;5011256;28;20139;-68
2024/01/18 09:17:15;;;;;;;2.45;2.25;;;-0.30;99.90;;;;;;5011112;28;20671;-67
2024/01/18 09:19:41;;;;;;;4.03;2.40;;;-0.30;99.90;;;;;;5012699;28;20045;-67
2024/01/18 09:22:06;;;;;;;7.63;2.33;;;-0.30;99.90;;;;;;5011073;28;20096;-67
2024/01/18 09:24:32;;;;;;;4.07;2.40;;;-0.20;99.90;;;;;;5010208;28;20048;-67
2024/01/18 09:26:58;;;;;;;3.20;1.80;;;-0.20;99.90;;;;;;5011851;28;20042;-67
2024/01/18 09:29:23;;;;;;;1.83;1.67;;;-0.10;99.90;;;;;;5010545;28;20050;-67
2024/01/18 09:31:49;;;;;;;1.92;1.83;;;-0.10;99.90;;;;;;5012010;28;20041;-67
2024/01/18 09:34:15;;;;;;;5.63;2.08;;;0.00;99.90;;;;;;5010342;28;20179;-67
2024/01/18 09:36:41;;;;;;;4.40;2.40;;;0.00;99.90;;;;;;5011895;28;20057;-67
2024/01/18 09:39:08;;;;;;;2.47;1.85;;;0.00;99.90;;;;;;5009985;28;20048;-67
2024/01/18 09:41:35;;;;;;;2.75;2.10;;;0.10;99.90;;;;;;5013229;28;20147;-67
2024/01/18 09:44:03;;;;;;;3.15;2.03;;;0.10;99.90;;;;;;5029722;28;20034;-67
2024/01/18 09:46:29;;;;;;;4.70;2.25;;;0.20;99.90;;;;;;5029913;28;20056;-67
2024/01/18 09:48:56;;;;;;;8.70;2.20;;;0.20;99.90;;;;;;5031227;28;20065;-67
2024/01/18 09:51:23;;;;;;;7.38;2.47;;;0.20;99.90;;;;;;5013388;28;20063;-67
2024/01/18 09:53:55;;;;;;;6.65;2.20;;;0.30;99.90;;;;;;5031160;28;20596;-68
2024/01/18 09:56:29;;;;;;;5.63;1.80;;;0.30;99.90;;;;;;5030929;28;20038;-67
2024/01/18 09:58:58;;;;;;;4.10;2.30;;;0.40;99.90;;;;;;5031038;28;20048;-68
2024/01/18 10:01:24;;;;;;;7.50;2.30;;;0.40;99.90;;;;;;5031352;28;20049;-66
2024/01/18 10:03:50;;;;;;;5.75;2.25;;;0.40;99.90;;;;;;5029672;28;20232;-67
2024/01/18 10:06:17;;;;;;;4.60;2.60;;;0.40;99.90;;;;;;5029358;28;20041;-67
2024/01/18 10:08:47;;;;;;;3.70;2.05;;;0.50;99.90;;;;;;5029723;28;20275;-68
2024/01/18 10:11:13;;;;;;;7.05;3.20;;;0.50;99.90;;;;;;5029935;28;20128;-68
2024/01/18 10:13:55;;;;;;;3.92;1.90;;;0.50;99.90;;;;;;5031634;28;20116;-68
2024/01/18 10:16:35;;;;;;;4.00;1.95;;;0.50;99.90;;;;;;5030054;28;20049;-66
2024/01/18 10:19:04;;;;;;;3.15;2.20;;;0.60;99.90;;;;;;5030111;28;20125;-66
2024/01/18 10:21:33;;;;;;;6.82;2.30;;;0.60;99.90;;;;;;5031517;28;20523;-67
2024/01/18 10:23:59;;;;;;;2.60;2.20;;;0.60;99.90;;;;;;5031011;28;20056;-67
2024/01/18 10:26:30;;;;;;;5.93;2.22;;;0.60;99.90;;;;;;5031081;28;20041;-67
2024/01/18 10:28:56;;;;;;;5.70;2.30;;;0.60;99.90;;;;;;5030458;28;20049;-67
2024/01/18 10:31:22;;;;;;;3.88;2.10;;;0.70;99.90;;;;;;5030995;28;20124;-67
2024/01/18 10:33:48;;;;;;;6.00;2.28;;;0.70;99.90;;;;;;5031028;28;20104;-67
2024/01/18 10:36:14;;;;;;;3.40;1.90;;;0.70;99.90;;;;;;5030997;28;20284;-67
2024/01/18 10:38:41;;;;;;;5.32;2.15;;;0.80;99.90;;;;;;5029193;28;20481;-67
2024/01/18 10:41:07;;;;;;;3.55;2.83;;;0.70;99.90;;;;;;5029511;28;20767;-66
2024/01/18 10:43:34;;;;;;;5.80;1.52;;;0.80;99.90;;;;;;5029690;28;20131;-67
2024/01/18 10:46:01;;;;;;;4.82;2.47;;;0.80;99.90;;;;;;5029062;28;20167;-66
2024/01/18 10:48:27;;;;;;;4.53;2.13;;;0.80;99.90;;;;;;5028325;28;20065;-66
2024/01/18 10:50:56;;;;;;;3.85;1.58;;;1.40;99.90;;;;;;5029888;28;20041;-65
2024/01/18 10:53:29;;;;;;;4.13;1.58;;;1.30;99.90;;;;;;5028970;28;20049;-65
2024/01/18 10:55:56;;;;;;;6.57;2.05;;;1.40;99.90;;;;;;5030276;28;20045;-66
2024/01/18 10:58:22;;;;;;;4.50;2.20;;;1.30;99.90;;;;;;5030112;28;20405;-67
2024/01/18 11:00:48;;;;;;;5.22;2.03;;;1.50;99.90;;;;;;5030519;28;20347;-65
2024/01/18 11:03:15;;;;;;;5.97;2.00;;;1.60;99.90;;;;;;5028691;28;20045;-65
2024/01/18 11:05:44;;;;;;;3.05;1.80;;;1.60;99.90;;;;;;5028687;28;20049;-65
2024/01/18 11:08:10;;;;;;;2.33;1.40;;;1.70;99.90;;;;;;5030563;28;20049;-65
2024/01/18 11:10:36;;;;;;;9.82;2.05;;;1.50;99.90;;;;;;5030175;28;20045;-65
2024/01/18 11:13:04;;;;;;;2.53;1.67;;;1.50;99.90;;;;;;5029045;28;20556;-65
2024/01/18 11:15:30;;;;;;;4.70;1.80;;;1.50;99.90;;;;;;5029748;28;20041;-65
2024/01/18 11:17:58;;;;;;;9.10;2.28;;;1.50;99.90;;;;;;5027965;28;20390;-66
2024/01/18 11:20:25;;;;;;;4.95;1.70;;;1.70;99.90;;;;;;5030196;28;20704;-65
2024/01/18 11:22:50;;;;;;;3.40;1.80;;;1.70;99.90;;;;;;5028880;28;20048;-66
2024/01/18 11:25:28;;;;;;;3.15;2.05;;;1.60;99.90;;;;;;5030398;28;20402;-66
2024/01/18 11:27:54;;;;;;;3.42;1.30;;;1.70;99.90;;;;;;5028550;28;20049;-66
2024/01/18 11:30:35;;;;;;;2.97;1.50;;;1.60;99.90;;;;;;5030109;28;20555;-65
2024/01/18 11:33:05;;;;;;;1.60;1.50;;;1.80;99.90;;;;;;5028370;28;20049;-66
2024/01/18 11:35:32;;;;;;;7.05;1.60;;;1.90;99.90;;;;;;5029588;28;20043;-66
2024/01/18 11:38:19;;;;;;;4.28;1.77;;;1.80;99.90;;;;;;5029382;28;20136;-66
2024/01/18 11:40:46;;;;;;;1.83;1.50;;;1.80;99.90;;;;;;5029605;28;20560;-67
2024/01/18 11:43:13;;;;;;;3.67;1.80;;;1.90;99.90;;;;;;5029774;28;20053;-67
2024/01/18 11:45:38;;;;;;;4.72;1.65;;;2.00;99.90;;;;;;5028133;28;20047;-67
2024/01/18 11:48:04;;;;;;;4.57;1.80;;;2.10;99.90;;;;;;5027942;28;20061;-67
2024/01/18 11:50:30;;;;;;;1.45;1.25;;;2.10;99.90;;;;;;5011837;28;20386;-66
2024/01/18 11:52:56;;;;;;;4.65;1.50;;;2.10;99.90;;;;;;5027107;28;20103;-67
2024/01/18 11:55:24;;;;;;;3.40;1.73;;;2.20;99.90;;;;;;5028889;28;20051;-67
2024/01/18 11:57:52;;;;;;;5.93;1.98;;;2.30;99.90;;;;;;5026656;28;20459;-67
2024/01/18 12:00:19;;;;;;;2.25;1.30;;;2.20;99.90;;;;;;5028786;28;20045;-67
2024/01/18 12:02:44;;;;;;;4.15;1.50;;;2.20;99.90;;;;;;5029330;28;20067;-67
2024/01/18 12:05:10;;;;;;;2.55;1.70;;;2.30;99.90;;;;;;5029347;28;20044;-67
2024/01/18 12:07:38;;;;;;;2.55;1.60;;;2.30;99.90;;;;;;5026549;28;20037;-67
2024/01/18 12:10:06;;;;;;;3.67;2.50;;;2.30;99.90;;;;;;5028176;28;20037;-67
2024/01/18 12:12:32;;;;;;;2.65;1.60;;;2.40;99.90;;;;;;5027214;28;20052;-67
2024/01/18 12:14:59;;;;;;;2.08;1.50;;;2.40;99.90;;;;;;5026792;28;20080;-66
2024/01/18 12:17:26;;;;;;;5.10;1.30;;;2.40;99.90;;;;;;5028170;28;20073;-67
2024/01/18 12:19:52;;;;;;;2.20;1.45;;;2.40;99.90;;;;;;5026918;28;20119;-67
2024/01/18 12:22:19;;;;;;;1.85;1.40;;;2.40;99.90;;;;;;5026981;28;20048;-67
2024/01/18 12:24:48;;;;;;;1.95;1.40;;;2.40;99.90;;;;;;5028418;28;20033;-67
2024/01/18 12:27:14;;;;;;;3.58;1.27;;;2.50;99.90;;;;;;5026069;28;20033;-67
2024/01/18 12:29:41;;;;;;;4.03;1.67;;;2.50;99.90;;;;;;5027027;28;20049;-67
2024/01/18 12:32:11;;;;;;;2.72;1.33;;;2.50;99.90;;;;;;5025153;28;20041;-67
2024/01/18 12:34:37;;;;;;;3.38;1.45;;;2.60;99.90;;;;;;5024383;28;20061;-67
2024/01/18 12:37:04;;;;;;;3.85;1.38;;;2.60;99.90;;;;;;5027311;28;20083;-67
2024/01/18 12:39:32;;;;;;;1.73;1.27;;;2.60;99.90;;;;;;5010985;28;20422;-67
2024/01/18 12:41:58;;;;;;;3.85;1.58;;;2.50;99.90;;;;;;5026775;28;20056;-67
2024/01/18 12:44:24;;;;;;;2.85;1.10;;;2.60;99.90;;;;;;5010308;28;20041;-67